Time;durP1;ratioP1;P1;durP2;ratioP2;P2;SDS_P1;SDS_P2;PMS_P1;PMS_P2;Temp;Humidity;BMP_temperature;BMP_pressure;BME280_temperature;BME280_humidity;BME280_pressure;Samples;Min_cycle;Max_cycle;Signal;HPM_P1;HPM_P2
2020/12/15 00:00:08;;;;;;;12.45;10.88;;;7.20;72.00;;;;;;5093690;28;20609;-63
2020/12/15 00:02:34;;;;;;;13.38;11.43;;;7.20;72.10;;;;;;5093257;28;20044;-65
2020/12/15 00:05:00;;;;;;;15.93;11.73;;;7.00;72.60;;;;;;5094144;28;20523;-65
2020/12/15 00:07:25;;;;;;;14.73;12.20;;;6.90;73.10;;;;;;5101532;28;20028;-63
2020/12/15 00:09:51;;;;;;;17.80;12.38;;;6.90;73.10;;;;;;5111597;28;20092;-65
2020/12/15 00:12:17;;;;;;;19.15;12.32;;;6.90;73.20;;;;;;5110991;28;20081;-64
2020/12/15 00:14:42;;;;;;;15.38;12.02;;;7.00;72.80;;;;;;5106412;28;20054;-66
2020/12/15 00:17:08;;;;;;;18.85;13.80;;;6.80;73.50;;;;;;5092907;28;20047;-66
2020/12/15 00:19:33;;;;;;;17.15;12.05;;;6.80;73.70;;;;;;5093224;28;20483;-65
2020/12/15 00:21:59;;;;;;;13.77;10.93;;;6.80;73.80;;;;;;5093224;28;20033;-65
2020/12/15 00:24:24;;;;;;;15.23;11.18;;;6.70;73.80;;;;;;5093115;28;20040;-65
2020/12/15 00:26:50;;;;;;;15.13;12.32;;;6.80;73.60;;;;;;5093383;28;20094;-67
2020/12/15 00:29:16;;;;;;;15.25;11.27;;;6.80;73.60;;;;;;5093179;28;20074;-65
2020/12/15 00:31:43;;;;;;;16.20;12.40;;;6.70;73.70;;;;;;5093990;28;20035;-65
2020/12/15 00:34:08;;;;;;;15.07;11.57;;;6.60;74.10;;;;;;5093582;28;20472;-65
2020/12/15 00:36:34;;;;;;;14.23;11.25;;;6.70;74.20;;;;;;5075301;28;20067;-64
2020/12/15 00:39:00;;;;;;;15.27;11.52;;;6.60;74.40;;;;;;5093183;28;20081;-63
2020/12/15 00:41:26;;;;;;;17.08;13.02;;;6.60;74.60;;;;;;5092968;28;20036;-64
2020/12/15 00:43:52;;;;;;;15.95;11.85;;;6.60;74.30;;;;;;5092739;28;20040;-64
2020/12/15 00:46:18;;;;;;;14.15;12.25;;;6.60;74.50;;;;;;5092714;28;20047;-65
2020/12/15 00:48:44;;;;;;;14.43;11.82;;;6.50;74.90;;;;;;5106326;28;20027;-65
2020/12/15 00:51:19;;;;;;;15.00;12.20;;;6.50;74.80;;;;;;5113209;28;20030;-63
2020/12/15 00:53:46;;;;;;;16.15;12.15;;;6.50;74.80;;;;;;5116291;28;20036;-65
2020/12/15 00:56:12;;;;;;;17.73;13.05;;;6.50;74.90;;;;;;5116061;28;20043;-64
2020/12/15 00:58:38;;;;;;;15.23;11.52;;;6.60;74.60;;;;;;5114691;28;20039;-65
2020/12/15 01:01:08;;;;;;;15.23;11.55;;;6.60;74.50;;;;;;5113343;28;20040;-64
2020/12/15 01:03:34;;;;;;;14.95;11.50;;;6.70;74.40;;;;;;5094634;28;20419;-62
2020/12/15 01:06:00;;;;;;;14.13;10.90;;;6.80;74.20;;;;;;5092623;28;20097;-62
2020/12/15 01:08:26;;;;;;;14.00;10.02;;;7.10;81.50;;;;;;5092593;28;20036;-61
2020/12/15 01:10:52;;;;;;;14.93;11.85;;;7.40;78.00;;;;;;5092435;28;20054;-62
2020/12/15 01:13:19;;;;;;;15.23;11.57;;;7.50;78.00;;;;;;5092110;28;20140;-63
2020/12/15 01:15:45;;;;;;;15.82;11.85;;;7.80;77.50;;;;;;5092146;28;20032;-58
2020/12/15 01:18:10;;;;;;;15.65;11.75;;;8.00;77.20;;;;;;5092779;28;20070;-58
2020/12/15 01:20:36;;;;;;;14.40;11.52;;;8.10;73.70;;;;;;5092360;28;20123;-62
2020/12/15 01:23:01;;;;;;;13.80;10.50;;;8.20;74.30;;;;;;5092156;28;20390;-60
2020/12/15 01:25:27;;;;;;;15.43;12.13;;;8.20;73.50;;;;;;5087105;28;20074;-58
2020/12/15 01:27:53;;;;;;;15.93;12.40;;;8.30;71.70;;;;;;5076305;28;20090;-57
2020/12/15 01:30:18;;;;;;;13.63;11.02;;;8.30;73.30;;;;;;5076220;28;20036;-65
2020/12/15 01:32:44;;;;;;;12.40;10.88;;;8.20;73.30;;;;;;5092016;28;20040;-60
2020/12/15 01:35:09;;;;;;;13.82;11.23;;;8.30;73.60;;;;;;5073396;28;20047;-60
2020/12/15 01:37:35;;;;;;;14.18;11.00;;;8.30;73.00;;;;;;5073388;28;20044;-59
2020/12/15 01:40:02;;;;;;;14.63;11.55;;;8.40;71.90;;;;;;5078961;28;20033;-62
2020/12/15 01:42:28;;;;;;;14.73;11.43;;;8.50;72.00;;;;;;5071259;28;20102;-60
2020/12/15 01:44:54;;;;;;;14.73;11.60;;;8.40;71.00;;;;;;5078377;28;20421;-59
2020/12/15 01:47:19;;;;;;;11.98;10.13;;;8.50;70.60;;;;;;5075249;28;20028;-64
2020/12/15 01:49:45;;;;;;;12.48;10.25;;;8.10;69.30;;;;;;5112567;28;20118;-63
2020/12/15 01:52:14;;;;;;;13.70;11.27;;;7.80;70.30;;;;;;5092985;28;20028;-63
2020/12/15 01:54:41;;;;;;;13.40;11.23;;;7.50;71.00;;;;;;5092344;28;20036;-63
2020/12/15 01:57:07;;;;;;;16.80;11.48;;;7.40;72.40;;;;;;5091353;28;20386;-63
2020/12/15 01:59:33;;;;;;;15.00;11.60;;;7.30;72.40;;;;;;5092308;28;20032;-63
2020/12/15 02:01:58;;;;;;;14.45;11.05;;;7.20;72.80;;;;;;5096696;28;20548;-63
2020/12/15 02:04:24;;;;;;;14.73;12.02;;;7.10;73.10;;;;;;5096880;28;20047;-64
2020/12/15 02:06:51;;;;;;;14.93;11.70;;;7.00;73.50;;;;;;5080019;28;20159;-63
2020/12/15 02:09:18;;;;;;;15.15;12.13;;;6.90;73.80;;;;;;5098325;28;20036;-64
2020/12/15 02:11:45;;;;;;;16.65;12.15;;;6.80;74.20;;;;;;5104600;28;20066;-63
2020/12/15 02:14:11;;;;;;;14.40;11.55;;;6.80;74.20;;;;;;5104132;28;20046;-64
2020/12/15 02:16:39;;;;;;;14.85;12.15;;;6.80;74.30;;;;;;5101320;28;20046;-64
2020/12/15 02:19:06;;;;;;;13.73;11.00;;;6.80;74.30;;;;;;5105673;28;20039;-64
2020/12/15 02:21:31;;;;;;;15.30;12.30;;;6.80;74.20;;;;;;5105071;28;20040;-64
2020/12/15 02:23:57;;;;;;;15.45;11.25;;;6.80;74.10;;;;;;5103920;28;20040;-62
2020/12/15 02:26:22;;;;;;;15.20;11.63;;;6.80;74.20;;;;;;5096150;28;20065;-65
2020/12/15 02:28:48;;;;;;;12.88;11.15;;;6.70;74.50;;;;;;5094419;28;20040;-64
2020/12/15 02:31:14;;;;;;;15.02;11.35;;;6.60;74.90;;;;;;5093665;28;20384;-64
2020/12/15 02:33:39;;;;;;;12.85;10.82;;;6.60;75.00;;;;;;5090652;28;20115;-63
2020/12/15 02:36:05;;;;;;;16.70;12.18;;;6.60;75.00;;;;;;5091435;28;20068;-63
2020/12/15 02:38:30;;;;;;;16.17;11.95;;;6.60;74.90;;;;;;5091456;28;20520;-63
2020/12/15 02:40:56;;;;;;;14.90;11.15;;;6.60;75.10;;;;;;5091395;28;20035;-64
2020/12/15 02:43:22;;;;;;;14.02;11.07;;;6.60;75.30;;;;;;5091577;28;20422;-64
2020/12/15 02:45:47;;;;;;;14.70;11.10;;;6.50;75.60;;;;;;5072027;28;20028;-61
2020/12/15 02:48:13;;;;;;;16.48;11.73;;;6.50;75.50;;;;;;5092707;28;20077;-64
2020/12/15 02:50:39;;;;;;;15.00;11.40;;;6.60;75.30;;;;;;5080027;28;20044;-64
2020/12/15 02:53:05;;;;;;;14.90;11.23;;;6.70;74.80;;;;;;5089240;28;20097;-62
2020/12/15 02:55:30;;;;;;;13.55;10.55;;;6.60;74.80;;;;;;5090488;28;20052;-63
2020/12/15 02:57:56;;;;;;;13.18;10.88;;;6.60;75.10;;;;;;5091129;28;20048;-64
2020/12/15 03:00:22;;;;;;;12.95;10.13;;;6.60;75.10;;;;;;5091247;28;20025;-65
2020/12/15 03:02:48;;;;;;;12.52;11.20;;;6.60;75.00;;;;;;5091219;28;20040;-65
2020/12/15 03:05:15;;;;;;;14.25;11.15;;;6.70;74.90;;;;;;5090876;28;20166;-63
2020/12/15 03:07:40;;;;;;;13.00;10.80;;;6.70;74.70;;;;;;5090976;28;20441;-64
2020/12/15 03:10:08;;;;;;;13.82;10.68;;;6.80;74.40;;;;;;5090945;28;20032;-64
2020/12/15 03:12:34;;;;;;;13.30;10.32;;;6.80;74.30;;;;;;5083241;28;20038;-64
2020/12/15 03:15:00;;;;;;;14.18;10.45;;;6.80;74.10;;;;;;5072673;28;20032;-64
2020/12/15 03:17:26;;;;;;;14.77;11.43;;;6.90;74.10;;;;;;5091560;28;20702;-64
2020/12/15 03:19:51;;;;;;;13.70;10.95;;;6.90;73.90;;;;;;5061329;28;20052;-65
2020/12/15 03:22:17;;;;;;;12.27;10.07;;;6.90;74.00;;;;;;5092702;28;20059;-65
2020/12/15 03:24:43;;;;;;;14.52;11.23;;;6.90;73.50;;;;;;5093991;28;20102;-65
2020/12/15 03:27:09;;;;;;;13.18;10.13;;;6.90;73.90;;;;;;5094597;28;20613;-63
2020/12/15 03:29:34;;;;;;;14.45;9.98;;;6.90;73.80;;;;;;5094637;28;20114;-65
2020/12/15 03:32:00;;;;;;;13.60;10.60;;;6.90;73.80;;;;;;5094155;28;20024;-63
2020/12/15 03:34:26;;;;;;;15.00;11.10;;;6.90;73.50;;;;;;5094321;28;20513;-64
2020/12/15 03:36:51;;;;;;;11.20;9.88;;;6.90;73.50;;;;;;5094461;28;20048;-63
2020/12/15 03:39:17;;;;;;;11.10;8.63;;;6.90;73.50;;;;;;5094846;28;20035;-63
2020/12/15 03:41:42;;;;;;;14.15;10.50;;;6.90;73.60;;;;;;5096149;28;20498;-63
2020/12/15 03:44:08;;;;;;;12.60;10.80;;;6.80;74.20;;;;;;5094272;28;20028;-64
2020/12/15 03:46:33;;;;;;;12.50;9.52;;;6.80;73.70;;;;;;5094336;28;20502;-62
2020/12/15 03:48:59;;;;;;;11.95;9.30;;;6.80;73.50;;;;;;5109747;28;20027;-63
2020/12/15 03:51:25;;;;;;;13.30;9.38;;;6.90;73.50;;;;;;5101709;28;20111;-64
2020/12/15 03:53:50;;;;;;;11.40;9.25;;;6.90;73.10;;;;;;5094839;28;20133;-64
2020/12/15 03:56:16;;;;;;;12.55;10.02;;;6.90;72.90;;;;;;5059040;28;20127;-64
2020/12/15 03:58:42;;;;;;;15.45;9.57;;;6.90;72.90;;;;;;5093988;28;20032;-62
2020/12/15 04:01:07;;;;;;;11.75;9.60;;;6.80;73.00;;;;;;5094119;28;20115;-62
2020/12/15 04:03:33;;;;;;;13.20;9.70;;;6.90;73.00;;;;;;5093814;28;20101;-64
2020/12/15 04:05:59;;;;;;;10.02;8.57;;;6.80;73.10;;;;;;5093564;28;20115;-64
2020/12/15 04:08:25;;;;;;;13.63;9.32;;;6.80;72.90;;;;;;5093712;28;20036;-64
2020/12/15 04:10:52;;;;;;;12.52;9.75;;;6.80;72.70;;;;;;5093662;28;20483;-63
2020/12/15 04:13:18;;;;;;;13.43;10.27;;;6.80;72.70;;;;;;5094126;28;20081;-64
2020/12/15 04:15:44;;;;;;;12.40;9.73;;;6.90;72.60;;;;;;5093234;28;20035;-64
2020/12/15 04:18:09;;;;;;;10.13;8.30;;;6.80;72.50;;;;;;5094116;28;20036;-65
2020/12/15 04:20:35;;;;;;;12.27;9.35;;;6.90;72.50;;;;;;5094941;28;20072;-64
2020/12/15 04:23:00;;;;;;;12.07;9.20;;;6.90;72.30;;;;;;5077247;28;20062;-63
2020/12/15 04:25:26;;;;;;;10.63;8.95;;;6.90;72.30;;;;;;5099326;28;20119;-64
2020/12/15 04:27:52;;;;;;;10.95;8.85;;;6.90;72.10;;;;;;5097171;28;20073;-64
2020/12/15 04:30:17;;;;;;;9.25;8.25;;;6.90;72.00;;;;;;5093495;28;20042;-64
2020/12/15 04:32:43;;;;;;;10.95;9.30;;;6.90;72.10;;;;;;5093804;28;20368;-67
2020/12/15 04:35:08;;;;;;;9.63;8.45;;;6.80;71.80;;;;;;5094250;28;20024;-64
2020/12/15 04:37:34;;;;;;;10.35;8.45;;;6.80;72.00;;;;;;5092793;28;20383;-65
2020/12/15 04:40:00;;;;;;;10.63;8.38;;;6.80;72.00;;;;;;5093763;28;20044;-65
2020/12/15 04:42:26;;;;;;;10.60;8.98;;;6.80;72.00;;;;;;5093524;28;20043;-65
2020/12/15 04:44:52;;;;;;;10.55;8.40;;;6.80;71.70;;;;;;5075089;28;20074;-64
2020/12/15 04:47:35;;;;;;;11.13;8.95;;;6.80;71.70;;;;;;5076371;28;20032;-65
2020/12/15 04:50:06;;;;;;;9.77;8.20;;;6.70;71.50;;;;;;5113469;28;20106;-65
2020/12/15 04:52:58;;;;;;;10.15;8.32;;;6.80;71.70;;;;;;5098245;28;20107;-65
2020/12/15 04:55:25;;;;;;;10.13;8.88;;;6.90;71.10;;;;;;5092541;28;20028;-66
2020/12/15 04:57:53;;;;;;;10.27;8.20;;;6.80;71.20;;;;;;5092789;28;20097;-66
2020/12/15 05:00:19;;;;;;;17.63;12.57;;;6.70;71.50;;;;;;5092837;28;20130;-65
2020/12/15 05:02:51;;;;;;;12.73;9.93;;;6.60;71.50;;;;;;5092753;28;20115;-65
2020/12/15 05:05:17;;;;;;;11.95;8.38;;;6.60;71.70;;;;;;5092487;28;20403;-66
2020/12/15 05:07:44;;;;;;;10.80;7.55;;;6.70;71.60;;;;;;5092570;28;20036;-64
2020/12/15 05:10:15;;;;;;;12.43;8.57;;;6.70;71.60;;;;;;5074533;28;20081;-65
2020/12/15 05:12:41;;;;;;;11.25;8.35;;;6.70;71.30;;;;;;5092409;28;20035;-66
2020/12/15 05:15:17;;;;;;;9.85;7.93;;;6.60;71.10;;;;;;5092255;28;20032;-65
2020/12/15 05:17:44;;;;;;;11.23;7.88;;;6.70;71.20;;;;;;5092308;28;20032;-66
2020/12/15 05:20:15;;;;;;;10.80;7.85;;;6.80;70.90;;;;;;5092534;28;20129;-64
2020/12/15 05:22:42;;;;;;;10.02;7.93;;;6.80;70.70;;;;;;5092321;28;20162;-65
2020/12/15 05:25:19;;;;;;;8.85;7.53;;;6.90;70.10;;;;;;5092251;28;20020;-64
2020/12/15 05:27:45;;;;;;;11.05;7.93;;;6.90;70.20;;;;;;5092397;28;20035;-65
2020/12/15 05:30:11;;;;;;;8.38;7.32;;;6.90;70.10;;;;;;5092545;28;20032;-65
2020/12/15 05:32:53;;;;;;;9.40;7.50;;;6.90;70.00;;;;;;5073898;28;20039;-65
2020/12/15 05:35:24;;;;;;;10.80;7.50;;;6.90;69.80;;;;;;5091906;28;20460;-65
2020/12/15 05:37:51;;;;;;;8.93;7.40;;;6.90;69.60;;;;;;5090747;28;20115;-63
2020/12/15 05:40:16;;;;;;;10.35;8.25;;;6.90;69.40;;;;;;5092295;28;20036;-65
2020/12/15 05:42:42;;;;;;;10.13;8.05;;;7.00;69.10;;;;;;5091886;28;20123;-64
2020/12/15 05:45:08;;;;;;;9.73;7.63;;;6.90;69.10;;;;;;5092095;28;20066;-66
2020/12/15 05:47:34;;;;;;;10.00;7.68;;;6.90;69.10;;;;;;5095604;28;20051;-65
2020/12/15 05:50:00;;;;;;;9.40;7.80;;;6.90;68.80;;;;;;5112992;28;20034;-66
2020/12/15 05:52:29;;;;;;;9.60;7.50;;;6.80;69.10;;;;;;5105059;28;20426;-66
2020/12/15 05:55:08;;;;;;;9.68;7.57;;;6.80;69.20;;;;;;5092680;28;20098;-66
2020/12/15 05:57:35;;;;;;;14.73;7.68;;;6.80;69.20;;;;;;5091952;28;20028;-65
2020/12/15 06:00:10;;;;;;;9.93;7.95;;;6.80;69.10;;;;;;5092094;28;20028;-66
2020/12/15 06:02:36;;;;;;;11.15;7.55;;;6.80;69.10;;;;;;5096831;28;20035;-62
2020/12/15 06:05:02;;;;;;;8.23;7.38;;;6.70;68.90;;;;;;5091116;28;20020;-66
2020/12/15 06:07:31;;;;;;;9.93;7.47;;;6.80;69.10;;;;;;5090973;28;20360;-65
2020/12/15 06:09:59;;;;;;;11.27;7.88;;;6.90;69.20;;;;;;5091250;28;20028;-65
2020/12/15 06:12:25;;;;;;;11.90;7.93;;;6.90;69.10;;;;;;5091729;28;20044;-64
2020/12/15 06:14:52;;;;;;;10.45;8.27;;;6.90;68.80;;;;;;5091798;28;20036;-63
2020/12/15 06:17:20;;;;;;;9.50;7.72;;;6.90;68.70;;;;;;5091614;28;20028;-64
2020/12/15 06:19:50;;;;;;;9.95;8.00;;;6.90;69.10;;;;;;5091764;28;20428;-64
2020/12/15 06:22:16;;;;;;;10.38;7.68;;;6.80;69.30;;;;;;5091867;28;20047;-63
2020/12/15 06:24:41;;;;;;;12.77;8.05;;;6.80;69.20;;;;;;5091864;28;20039;-64
2020/12/15 06:27:09;;;;;;;9.43;7.95;;;6.90;69.20;;;;;;5091794;28;20032;-65
2020/12/15 06:29:36;;;;;;;10.20;8.23;;;6.90;69.20;;;;;;5092078;28;20024;-64
2020/12/15 06:32:08;;;;;;;10.50;8.60;;;6.90;68.90;;;;;;5092346;28;20020;-64
2020/12/15 06:34:34;;;;;;;11.88;8.48;;;7.00;69.00;;;;;;5074035;28;20033;-63
2020/12/15 06:37:00;;;;;;;10.10;8.23;;;6.90;68.90;;;;;;5072944;28;20060;-63
2020/12/15 06:39:28;;;;;;;9.25;7.47;;;7.00;69.00;;;;;;5090511;28;20059;-62
2020/12/15 06:41:59;;;;;;;10.32;8.65;;;7.00;68.80;;;;;;5091730;28;20023;-63
2020/12/15 06:44:32;;;;;;;10.38;9.02;;;7.00;68.90;;;;;;5091086;28;20040;-63
2020/12/15 06:46:59;;;;;;;10.88;9.02;;;7.10;68.90;;;;;;5091861;28;20028;-64
2020/12/15 06:49:33;;;;;;;10.32;7.90;;;7.00;69.00;;;;;;5092483;28;20039;-64
2020/12/15 06:52:00;;;;;;;10.05;7.93;;;7.00;69.20;;;;;;5092339;28;20110;-63
2020/12/15 06:54:27;;;;;;;17.77;13.70;;;7.00;69.00;;;;;;5091049;28;20040;-65
2020/12/15 06:57:09;;;;;;;10.88;8.88;;;6.90;69.20;;;;;;5093029;28;20034;-61
2020/12/15 06:59:39;;;;;;;10.73;7.75;;;7.00;68.50;;;;;;5094924;28;20069;-64
2020/12/15 07:02:16;;;;;;;10.60;8.30;;;6.90;68.90;;;;;;5095513;28;20119;-65
2020/12/15 07:04:47;;;;;;;20.35;14.38;;;7.00;69.00;;;;;;5094573;28;20035;-65
2020/12/15 07:07:15;;;;;;;11.45;9.27;;;6.90;69.30;;;;;;5094589;28;20460;-66
2020/12/15 07:09:45;;;;;;;10.68;8.52;;;6.90;69.20;;;;;;5095581;28;20106;-65
2020/12/15 07:12:12;;;;;;;9.70;8.07;;;6.90;69.00;;;;;;5095621;28;20101;-64
2020/12/15 07:14:38;;;;;;;11.75;8.20;;;7.00;69.10;;;;;;5094570;28;20394;-65
2020/12/15 07:17:04;;;;;;;11.50;7.95;;;6.90;69.90;;;;;;5094971;28;20027;-65
2020/12/15 07:19:30;;;;;;;9.90;8.32;;;6.90;69.40;;;;;;5094756;28;20044;-65
2020/12/15 07:21:55;;;;;;;10.18;8.18;;;6.90;69.50;;;;;;5094996;28;20103;-65
2020/12/15 07:24:21;;;;;;;10.52;7.82;;;7.00;69.40;;;;;;5094388;28;20419;-64
2020/12/15 07:26:47;;;;;;;10.70;7.50;;;7.00;69.30;;;;;;5094955;28;20028;-66
2020/12/15 07:29:17;;;;;;;9.38;7.50;;;7.00;69.90;;;;;;5094866;28;20032;-64
2020/12/15 07:31:43;;;;;;;8.88;7.20;;;7.00;69.40;;;;;;5096629;28;20032;-64
2020/12/15 07:34:14;;;;;;;10.30;7.30;;;7.00;69.10;;;;;;5098769;28;20032;-64
2020/12/15 07:36:45;;;;;;;10.68;7.60;;;7.10;69.10;;;;;;5099675;28;20039;-65
2020/12/15 07:39:11;;;;;;;10.43;7.40;;;7.10;68.90;;;;;;5098343;28;20039;-64
2020/12/15 07:41:37;;;;;;;10.40;7.88;;;7.20;68.80;;;;;;5096729;28;20444;-65
2020/12/15 07:44:16;;;;;;;10.98;8.02;;;7.20;68.60;;;;;;5095459;28;20032;-64
2020/12/15 07:46:46;;;;;;;15.18;10.63;;;7.20;68.70;;;;;;5096367;28;20102;-65
2020/12/15 07:49:13;;;;;;;14.82;10.75;;;7.20;69.20;;;;;;5102598;28;20509;-64
2020/12/15 07:51:39;;;;;;;10.77;8.65;;;7.20;68.90;;;;;;5094533;28;20035;-64
2020/12/15 07:54:05;;;;;;;14.77;9.07;;;7.10;69.00;;;;;;5094587;28;20024;-66
2020/12/15 07:56:31;;;;;;;12.82;9.90;;;7.20;69.10;;;;;;5096863;28;20484;-66
2020/12/15 07:58:58;;;;;;;12.93;9.13;;;7.20;68.80;;;;;;5097796;28;20039;-64
2020/12/15 08:01:29;;;;;;;9.88;8.05;;;7.30;68.70;;;;;;5100434;28;20036;-64
2020/12/15 08:04:01;;;;;;;10.10;7.53;;;7.30;68.20;;;;;;5095819;28;20032;-65
2020/12/15 08:06:30;;;;;;;9.80;7.82;;;7.30;68.40;;;;;;5094632;28;20036;-65
2020/12/15 08:08:58;;;;;;;10.45;7.00;;;7.40;68.00;;;;;;5093755;28;20509;-66
2020/12/15 08:11:23;;;;;;;10.80;8.23;;;7.40;68.10;;;;;;5093651;28;20498;-66
2020/12/15 08:13:49;;;;;;;9.35;8.05;;;7.40;68.80;;;;;;5093168;28;20028;-66
2020/12/15 08:16:15;;;;;;;9.20;7.15;;;7.50;68.20;;;;;;5075394;28;20040;-65
2020/12/15 08:18:43;;;;;;;11.95;9.20;;;7.50;68.00;;;;;;5093741;28;20046;-66
2020/12/15 08:21:16;;;;;;;11.50;8.30;;;7.50;68.00;;;;;;5093303;28;20101;-65
2020/12/15 08:23:50;;;;;;;9.98;7.60;;;7.50;67.80;;;;;;5093636;28;20395;-65
2020/12/15 08:26:17;;;;;;;9.02;7.60;;;7.60;68.50;;;;;;5093530;28;20039;-65
2020/12/15 08:28:45;;;;;;;10.50;7.93;;;7.50;67.80;;;;;;5093785;28;20124;-65
2020/12/15 08:31:11;;;;;;;13.23;8.00;;;7.60;67.80;;;;;;5093378;28;20368;-64
2020/12/15 08:33:38;;;;;;;11.18;7.10;;;7.60;67.60;;;;;;5093527;28;20089;-65
2020/12/15 08:36:04;;;;;;;8.75;7.18;;;7.60;67.40;;;;;;5093366;28;20040;-65
2020/12/15 08:38:30;;;;;;;11.13;8.25;;;7.60;67.00;;;;;;5093397;28;20487;-63
2020/12/15 08:40:56;;;;;;;10.25;7.05;;;7.60;67.00;;;;;;5093304;28;20032;-64
2020/12/15 08:43:22;;;;;;;8.80;7.07;;;7.70;67.00;;;;;;5075045;28;20367;-64
2020/12/15 08:45:48;;;;;;;8.93;6.85;;;7.70;66.80;;;;;;5093071;28;20032;-65
2020/12/15 08:48:22;;;;;;;9.18;7.35;;;7.80;66.60;;;;;;5100159;28;20104;-65
2020/12/15 08:50:48;;;;;;;12.52;7.68;;;7.80;66.80;;;;;;5093759;28;20032;-64
2020/12/15 08:53:15;;;;;;;12.70;8.52;;;7.90;66.90;;;;;;5093334;28;20036;-64
2020/12/15 08:55:45;;;;;;;10.50;8.10;;;7.90;66.90;;;;;;5093072;28;20028;-64
2020/12/15 08:58:11;;;;;;;12.40;9.55;;;8.00;66.60;;;;;;5093145;28;20032;-63
2020/12/15 09:00:40;;;;;;;15.25;9.60;;;8.00;66.70;;;;;;5093051;28;20036;-64
2020/12/15 09:03:11;;;;;;;10.50;8.32;;;8.10;66.30;;;;;;5094542;28;20040;-64
2020/12/15 09:05:50;;;;;;;12.57;9.38;;;8.00;66.50;;;;;;5096235;28;20028;-64
2020/12/15 09:08:17;;;;;;;11.50;8.68;;;8.10;66.30;;;;;;5075748;28;20502;-63
2020/12/15 09:10:43;;;;;;;12.55;8.60;;;8.20;66.20;;;;;;5093451;28;20101;-64
2020/12/15 09:13:08;;;;;;;9.93;7.38;;;8.10;66.20;;;;;;5092659;28;20554;-64
2020/12/15 09:15:48;;;;;;;9.57;7.70;;;8.20;65.80;;;;;;5092403;28;20036;-64
2020/12/15 09:18:15;;;;;;;10.18;7.70;;;8.20;65.80;;;;;;5093138;28;20410;-65
2020/12/15 09:20:41;;;;;;;9.10;7.47;;;8.20;65.60;;;;;;5092741;28;20040;-65
2020/12/15 09:23:07;;;;;;;10.60;7.70;;;8.20;66.10;;;;;;5095845;28;20038;-65
2020/12/15 09:25:33;;;;;;;8.43;7.18;;;8.20;66.00;;;;;;5103001;28;20084;-63
2020/12/15 09:27:58;;;;;;;10.68;7.90;;;8.20;65.90;;;;;;5106372;28;20105;-64
2020/12/15 09:30:24;;;;;;;11.50;8.10;;;8.30;65.60;;;;;;5104340;28;20068;-65
2020/12/15 09:32:49;;;;;;;14.50;11.30;;;8.40;65.30;;;;;;5076343;28;20056;-63
2020/12/15 09:35:15;;;;;;;9.75;7.63;;;8.50;65.10;;;;;;5080185;28;20047;-64
2020/12/15 09:37:41;;;;;;;9.43;7.30;;;8.60;65.00;;;;;;5098791;28;20028;-65
2020/12/15 09:40:09;;;;;;;10.80;7.60;;;8.50;64.90;;;;;;5074676;28;20038;-64
2020/12/15 09:42:36;;;;;;;10.88;8.23;;;8.60;64.80;;;;;;5093072;28;20039;-65
2020/12/15 09:45:05;;;;;;;10.40;7.93;;;8.60;64.80;;;;;;5092938;28;20036;-62
2020/12/15 09:47:32;;;;;;;9.35;7.68;;;8.50;64.80;;;;;;5093154;28;20061;-64
2020/12/15 09:49:57;;;;;;;10.65;7.35;;;8.50;64.80;;;;;;5094169;28;20035;-65
2020/12/15 09:52:25;;;;;;;10.38;7.30;;;8.60;64.80;;;;;;5091189;28;20140;-64
2020/12/15 09:54:51;;;;;;;8.55;6.60;;;8.50;65.10;;;;;;5091517;28;20487;-63
2020/12/15 09:57:16;;;;;;;11.80;9.05;;;8.40;65.50;;;;;;5091808;28;20046;-62
2020/12/15 09:59:42;;;;;;;11.68;8.38;;;8.50;65.20;;;;;;5090996;28;20035;-64
2020/12/15 10:02:08;;;;;;;11.82;7.22;;;8.50;65.50;;;;;;5092740;28;20036;-64
2020/12/15 10:04:33;;;;;;;10.25;7.35;;;8.50;65.40;;;;;;5093316;28;20032;-65
2020/12/15 10:06:59;;;;;;;11.23;8.00;;;8.50;65.70;;;;;;5101330;28;20032;-63
2020/12/15 10:09:24;;;;;;;10.00;7.05;;;8.60;65.60;;;;;;5102631;28;21402;-63
2020/12/15 10:11:50;;;;;;;10.15;7.50;;;8.50;65.50;;;;;;5096251;28;20036;-64
2020/12/15 10:14:16;;;;;;;8.32;7.07;;;8.50;65.70;;;;;;5044139;28;20029;-64
2020/12/15 10:16:42;;;;;;;10.95;7.90;;;8.50;66.00;;;;;;5077793;28;20044;-64
2020/12/15 10:19:08;;;;;;;11.27;7.95;;;8.50;66.20;;;;;;5073993;28;20051;-63
2020/12/15 10:21:37;;;;;;;10.07;7.68;;;8.50;66.30;;;;;;5091247;28;20036;-58
2020/12/15 10:24:03;;;;;;;10.43;7.68;;;8.50;66.40;;;;;;5077472;28;20071;-61
2020/12/15 10:26:29;;;;;;;12.85;7.50;;;8.60;66.50;;;;;;5090012;28;20024;-61
2020/12/15 10:28:56;;;;;;;12.93;8.50;;;8.60;66.60;;;;;;5098197;28;20406;-61
2020/12/15 10:31:22;;;;;;;16.52;8.82;;;8.60;66.50;;;;;;5090677;28;20082;-62
2020/12/15 10:33:48;;;;;;;10.57;8.02;;;8.70;66.50;;;;;;5078843;28;20029;-60
2020/12/15 10:36:15;;;;;;;11.75;8.57;;;8.70;66.70;;;;;;5095135;28;20043;-63
2020/12/15 10:38:41;;;;;;;11.20;7.65;;;8.70;66.80;;;;;;5095382;28;20036;-61
2020/12/15 10:41:07;;;;;;;9.77;7.63;;;8.70;67.00;;;;;;5095664;28;20028;-61
2020/12/15 10:43:33;;;;;;;12.07;8.43;;;8.80;66.60;;;;;;5093967;28;20036;-61
2020/12/15 10:45:59;;;;;;;14.60;9.10;;;8.90;66.80;;;;;;5095968;28;20043;-61
2020/12/15 10:48:25;;;;;;;11.40;8.88;;;8.80;66.80;;;;;;5101601;28;20032;-59
2020/12/15 10:50:51;;;;;;;13.90;8.82;;;8.80;67.20;;;;;;5095546;28;20101;-59
2020/12/15 10:53:18;;;;;;;9.63;7.93;;;8.70;67.80;;;;;;5094844;28;20398;-60
2020/12/15 10:55:50;;;;;;;12.35;8.75;;;8.70;68.20;;;;;;5094937;28;20036;-58
2020/12/15 10:58:16;;;;;;;10.77;8.38;;;8.80;68.30;;;;;;5095630;28;20661;-60
2020/12/15 11:00:44;;;;;;;15.13;8.95;;;8.80;68.50;;;;;;5094899;28;20040;-60
2020/12/15 11:03:10;;;;;;;12.60;8.55;;;8.90;68.50;;;;;;5094456;28;20383;-62
2020/12/15 11:05:36;;;;;;;9.70;8.13;;;8.90;68.60;;;;;;5092604;28;20031;-70
2020/12/15 11:08:02;;;;;;;11.65;8.45;;;8.90;69.00;;;;;;5094295;28;20032;-65
2020/12/15 11:10:27;;;;;;;10.30;7.75;;;8.90;69.30;;;;;;5076146;28;20040;-66
2020/12/15 11:12:53;;;;;;;12.18;7.60;;;8.90;69.10;;;;;;5100617;28;20035;-65
2020/12/15 11:15:18;;;;;;;10.93;7.93;;;8.90;69.50;;;;;;5078632;28;20043;-63
2020/12/15 11:17:44;;;;;;;11.52;7.30;;;8.90;69.60;;;;;;5095454;28;20040;-63
2020/12/15 11:20:10;;;;;;;16.27;8.23;;;8.90;69.90;;;;;;5095552;28;20059;-63
2020/12/15 11:22:35;;;;;;;12.95;8.77;;;8.90;70.20;;;;;;5094867;28;20522;-64
2020/12/15 11:25:01;;;;;;;10.75;8.02;;;8.90;70.50;;;;;;5094748;28;20035;-64
2020/12/15 11:27:27;;;;;;;13.07;8.05;;;8.90;70.60;;;;;;5094957;28;20134;-60
2020/12/15 11:29:53;;;;;;;10.48;8.10;;;9.00;70.40;;;;;;5095209;28;20063;-61
2020/12/15 11:32:18;;;;;;;12.15;8.80;;;8.90;70.30;;;;;;5096321;28;20043;-59
2020/12/15 11:34:47;;;;;;;14.68;9.38;;;8.90;70.70;;;;;;5095281;28;20039;-60
2020/12/15 11:37:13;;;;;;;11.82;9.02;;;8.90;70.60;;;;;;5059566;28;20047;-61
2020/12/15 11:39:40;;;;;;;11.70;8.20;;;8.90;70.60;;;;;;5066645;28;20062;-62
2020/12/15 11:42:10;;;;;;;10.75;8.40;;;8.80;70.80;;;;;;5059565;28;20070;-61
2020/12/15 11:44:37;;;;;;;10.80;8.40;;;8.80;70.80;;;;;;5065169;28;20437;-59
2020/12/15 11:47:02;;;;;;;10.65;8.95;;;8.80;70.80;;;;;;5054293;28;20029;-59
2020/12/15 11:49:28;;;;;;;11.23;8.45;;;8.80;71.30;;;;;;5071780;28;20063;-60
2020/12/15 11:51:55;;;;;;;12.05;9.20;;;8.80;72.00;;;;;;5063007;28;20044;-59
2020/12/15 11:54:21;;;;;;;13.77;9.02;;;8.70;72.60;;;;;;5065285;28;20056;-59
2020/12/15 11:56:49;;;;;;;12.38;9.20;;;8.80;72.70;;;;;;5056608;28;20598;-60
2020/12/15 11:59:15;;;;;;;10.32;8.75;;;8.80;72.70;;;;;;5071687;28;20051;-59
2020/12/15 12:01:40;;;;;;;10.30;9.05;;;8.90;73.40;;;;;;5060934;28;20111;-59
2020/12/15 12:04:06;;;;;;;11.55;9.20;;;8.90;72.90;;;;;;5053851;28;20033;-60
2020/12/15 12:06:32;;;;;;;11.70;9.65;;;8.90;72.70;;;;;;5053966;28;20033;-60
2020/12/15 12:08:57;;;;;;;12.23;9.23;;;8.90;72.90;;;;;;5054656;28;20021;-62
2020/12/15 12:11:26;;;;;;;12.95;10.05;;;8.90;73.10;;;;;;5066440;28;20055;-62
2020/12/15 12:13:52;;;;;;;13.52;8.98;;;8.90;72.90;;;;;;5066078;28;20045;-61
2020/12/15 12:16:20;;;;;;;12.20;9.18;;;9.00;72.50;;;;;;5055905;28;20025;-59
2020/12/15 12:18:46;;;;;;;10.85;8.52;;;9.10;72.50;;;;;;5062569;28;20041;-58
2020/12/15 12:21:11;;;;;;;11.43;8.68;;;9.00;72.80;;;;;;5068778;28;20412;-60
2020/12/15 12:23:39;;;;;;;10.32;8.32;;;9.00;72.80;;;;;;5058714;28;20041;-63
2020/12/15 12:26:05;;;;;;;12.15;8.90;;;9.10;72.60;;;;;;5060912;28;20036;-62
2020/12/15 12:28:32;;;;;;;11.40;8.60;;;9.20;72.40;;;;;;5071461;28;20119;-63
2020/12/15 12:30:57;;;;;;;11.75;9.02;;;9.20;72.20;;;;;;5043748;28;20037;-61
2020/12/15 12:33:23;;;;;;;11.55;9.05;;;9.20;72.90;;;;;;5062322;28;20549;-59
2020/12/15 12:35:52;;;;;;;15.27;9.50;;;9.20;72.00;;;;;;5040838;28;20030;-61
2020/12/15 12:38:19;;;;;;;14.00;10.25;;;9.20;72.00;;;;;;5063554;28;20035;-62
2020/12/15 12:40:44;;;;;;;14.27;9.15;;;9.20;71.80;;;;;;5043269;28;20064;-61
2020/12/15 12:43:10;;;;;;;13.07;9.70;;;9.20;71.70;;;;;;5059365;28;20122;-58